createdAt,value
2019-05-19T00:00:41.493Z,0.00
2019-05-19T00:01:41.556Z,0.00
2019-05-19T00:02:41.550Z,0.00
2019-05-19T00:03:41.566Z,0.00
2019-05-19T00:04:41.596Z,0.00
2019-05-19T00:05:41.620Z,0.00
2019-05-19T00:06:41.654Z,0.00
2019-05-19T00:07:41.675Z,0.00
2019-05-19T00:08:41.709Z,0.00
2019-05-19T00:09:41.739Z,0.00
2019-05-19T00:10:41.762Z,0.00
2019-05-19T00:11:41.786Z,0.00
2019-05-19T00:12:41.816Z,0.00
2019-05-19T00:13:41.847Z,0.00
2019-05-19T00:14:41.872Z,0.00
2019-05-19T00:16:41.932Z,0.00
2019-05-19T00:17:41.958Z,0.00
2019-05-19T00:18:41.982Z,0.00
2019-05-19T00:19:42.015Z,0.00
2019-05-19T00:20:42.040Z,0.00
2019-05-19T00:21:42.079Z,0.00
2019-05-19T00:22:42.093Z,0.00
2019-05-19T00:23:42.128Z,0.00
2019-05-19T00:24:42.151Z,0.00
2019-05-19T00:25:42.180Z,0.00
2019-05-19T00:26:42.206Z,0.00
2019-05-19T00:27:48.501Z,0.00
2019-05-19T00:28:42.270Z,0.00
2019-05-19T00:29:42.288Z,0.00
2019-05-19T00:30:42.327Z,0.00
2019-05-19T00:31:42.343Z,0.00
2019-05-19T00:32:42.432Z,0.00
2019-05-19T00:34:42.444Z,0.00
2019-05-19T00:35:42.461Z,0.00
2019-05-19T00:36:42.490Z,0.00
2019-05-19T00:37:42.511Z,0.00
2019-05-19T00:38:42.540Z,0.00
2019-05-19T00:39:42.575Z,0.00
2019-05-19T00:40:42.593Z,0.00
2019-05-19T00:41:42.631Z,0.00
2019-05-19T00:42:42.649Z,0.00
2019-05-19T00:43:42.682Z,0.00
2019-05-19T00:44:42.713Z,0.00
2019-05-19T00:45:42.732Z,0.00
2019-05-19T00:46:42.760Z,0.00
2019-05-19T00:47:42.992Z,0.00
2019-05-19T00:48:42.816Z,0.00
2019-05-19T00:49:42.843Z,0.00
2019-05-19T00:50:42.879Z,0.00
2019-05-19T00:51:42.899Z,0.00
2019-05-19T00:52:42.924Z,0.00
2019-05-19T00:53:42.955Z,0.00
2019-05-19T00:54:42.983Z,0.00
2019-05-19T00:55:43.015Z,0.00
2019-05-19T00:56:43.038Z,0.00
2019-05-19T00:57:43.066Z,0.00
2019-05-19T00:58:43.097Z,0.00
2019-05-19T00:59:43.119Z,0.00
2019-05-19T01:00:43.148Z,0.00
2019-05-19T01:01:43.175Z,0.00
2019-05-19T01:02:43.220Z,0.00
2019-05-19T01:03:43.240Z,0.00
2019-05-19T01:04:43.256Z,0.00
2019-05-19T01:05:43.286Z,0.00
2019-05-19T01:06:43.314Z,0.00
2019-05-19T01:07:43.344Z,0.00
2019-05-19T01:08:43.369Z,0.00
2019-05-19T01:09:43.401Z,0.00
2019-05-19T01:10:43.437Z,0.00
2019-05-19T01:11:43.452Z,0.00
2019-05-19T01:12:43.480Z,0.00
2019-05-19T01:13:43.509Z,0.00
2019-05-19T01:14:43.541Z,0.00
2019-05-19T01:15:43.564Z,0.00
2019-05-19T01:16:43.595Z,0.00
2019-05-19T01:17:43.623Z,0.00
2019-05-19T01:18:43.653Z,0.00
2019-05-19T01:19:55.228Z,0.00
2019-05-19T01:20:43.697Z,0.00
2019-05-19T01:21:43.726Z,0.00
2019-05-19T01:22:43.756Z,0.00
2019-05-19T01:23:43.781Z,0.00
2019-05-19T01:24:43.827Z,0.00
2019-05-19T01:25:43.837Z,0.00
2019-05-19T01:26:43.865Z,0.00
2019-05-19T01:27:43.897Z,0.00
2019-05-19T01:28:43.921Z,0.00
2019-05-19T01:29:43.951Z,0.00
2019-05-19T01:30:43.983Z,0.00
2019-05-19T01:31:44.005Z,0.00
2019-05-19T01:32:44.030Z,0.00
2019-05-19T01:33:44.058Z,0.00
2019-05-19T01:34:44.085Z,0.00
2019-05-19T01:35:44.120Z,0.00
2019-05-19T01:36:44.146Z,0.00
2019-05-19T01:37:44.170Z,0.00
2019-05-19T01:38:44.196Z,0.00
2019-05-19T01:39:44.242Z,0.00
2019-05-19T01:40:44.249Z,0.00
2019-05-19T01:41:44.283Z,0.00
2019-05-19T01:42:44.516Z,0.00
2019-05-19T01:43:44.333Z,0.00
2019-05-19T01:44:44.360Z,0.00
2019-05-19T01:45:44.387Z,0.00
2019-05-19T01:46:44.417Z,0.00
2019-05-19T01:47:44.441Z,0.00
2019-05-19T01:48:44.471Z,0.00
2019-05-19T01:49:44.499Z,0.00
2019-05-19T01:50:44.530Z,0.00
2019-05-19T01:51:44.555Z,0.00
2019-05-19T01:52:44.584Z,0.00
2019-05-19T01:53:44.609Z,0.00
2019-05-19T01:54:44.634Z,0.00
2019-05-19T01:55:44.660Z,0.00
2019-05-19T01:56:44.688Z,0.00
2019-05-19T01:57:44.720Z,0.00
2019-05-19T01:58:44.743Z,0.00
2019-05-19T01:59:44.780Z,0.00
2019-05-19T02:00:44.814Z,0.00
2019-05-19T02:01:44.828Z,0.00
2019-05-19T02:02:44.855Z,0.00
2019-05-19T02:03:44.885Z,0.00
2019-05-19T02:04:44.910Z,0.00
2019-05-19T02:05:44.935Z,0.00
2019-05-19T02:06:44.968Z,0.00
2019-05-19T02:07:44.992Z,0.00
2019-05-19T02:08:45.023Z,0.00
2019-05-19T02:09:45.046Z,0.00
2019-05-19T02:10:45.078Z,0.00
2019-05-19T02:11:45.099Z,0.00
2019-05-19T02:12:45.135Z,0.00
2019-05-19T02:13:45.154Z,0.00
2019-05-19T02:14:45.189Z,0.00
2019-05-19T02:15:45.218Z,0.00
2019-05-19T02:16:45.239Z,0.00
2019-05-19T02:17:45.264Z,0.00
2019-05-19T02:18:45.294Z,0.00
2019-05-19T02:19:45.321Z,0.00
2019-05-19T02:20:45.350Z,0.00
2019-05-19T02:21:45.379Z,0.00
2019-05-19T02:22:45.414Z,0.00
2019-05-19T02:23:45.430Z,0.00
2019-05-19T02:24:45.454Z,0.00
2019-05-19T02:25:45.483Z,0.00
2019-05-19T02:26:45.515Z,0.00
2019-05-19T02:27:45.542Z,0.00
2019-05-19T02:28:45.569Z,0.00
2019-05-19T02:29:45.599Z,0.00
2019-05-19T02:30:45.623Z,0.00
2019-05-19T02:31:45.649Z,0.00
2019-05-19T02:32:45.675Z,0.00
2019-05-19T02:33:45.703Z,0.00
2019-05-19T02:34:45.734Z,0.00
2019-05-19T02:35:45.757Z,0.00
2019-05-19T02:36:45.784Z,0.00
2019-05-19T02:37:45.814Z,0.00
2019-05-19T02:38:45.847Z,0.00
2019-05-19T02:39:45.866Z,0.00
2019-05-19T02:40:45.893Z,0.00
2019-05-19T02:41:45.925Z,0.00
2019-05-19T02:42:45.951Z,0.00
2019-05-19T02:43:45.983Z,0.00
2019-05-19T02:44:46.004Z,0.00
2019-05-19T02:45:46.041Z,0.00
2019-05-19T02:46:46.064Z,0.00
2019-05-19T02:47:46.092Z,0.00
2019-05-19T02:48:46.114Z,0.00
2019-05-19T02:49:46.138Z,0.00
2019-05-19T02:50:52.484Z,0.00
2019-05-19T02:51:46.192Z,4.00
2019-05-19T02:52:46.221Z,4.00
2019-05-19T02:53:46.251Z,4.00
2019-05-19T02:54:46.275Z,4.00
2019-05-19T02:55:46.307Z,0.00
2019-05-19T02:56:46.335Z,4.00
2019-05-19T02:57:46.370Z,4.00
2019-05-19T02:58:46.387Z,4.00
2019-05-19T02:59:46.413Z,4.00
2019-05-19T03:00:46.437Z,4.00
2019-05-19T03:01:46.466Z,8.00
2019-05-19T03:02:46.495Z,4.00
2019-05-19T03:03:46.536Z,8.00
2019-05-19T03:04:46.546Z,8.00
2019-05-19T03:05:46.581Z,12.00
2019-05-19T03:06:46.605Z,12.00
2019-05-19T03:07:46.633Z,12.00
2019-05-19T03:08:46.666Z,12.00
2019-05-19T03:09:46.688Z,16.00
2019-05-19T03:10:46.722Z,16.00
2019-05-19T03:11:46.737Z,20.00
2019-05-19T03:12:46.766Z,24.00
2019-05-19T03:13:46.797Z,28.00
2019-05-19T03:14:46.821Z,32.00
2019-05-19T03:15:46.846Z,36.00
2019-05-19T03:16:46.875Z,36.00
2019-05-19T03:17:46.906Z,44.00
2019-05-19T03:18:46.934Z,52.00
2019-05-19T03:19:46.957Z,56.00
2019-05-19T03:20:46.983Z,64.00
2019-05-19T03:21:47.011Z,68.00
2019-05-19T03:22:47.051Z,76.00
2019-05-19T03:23:47.067Z,80.00
2019-05-19T03:24:47.092Z,88.00
2019-05-19T03:25:47.121Z,100.00
2019-05-19T03:26:47.149Z,108.00
2019-05-19T03:27:47.173Z,116.00
2019-05-19T03:28:47.201Z,124.00
2019-05-19T03:29:47.228Z,136.00
2019-05-19T03:30:47.265Z,140.00
2019-05-19T03:31:47.283Z,152.00
2019-05-19T03:32:47.312Z,164.00
2019-05-19T03:33:47.337Z,176.00
2019-05-19T03:34:47.375Z,188.00
2019-05-19T03:35:47.398Z,204.00
2019-05-19T03:36:47.422Z,220.00
2019-05-19T03:37:47.447Z,232.00
2019-05-19T03:38:47.475Z,248.00
2019-05-19T03:39:47.508Z,268.00
2019-05-19T03:40:47.529Z,284.00
2019-05-19T03:41:47.562Z,304.00
2019-05-19T03:42:47.584Z,324.00
2019-05-19T03:43:47.612Z,344.00
2019-05-19T03:44:47.639Z,364.00
2019-05-19T03:45:47.670Z,388.00
2019-05-19T03:46:47.699Z,412.00
2019-05-19T03:47:47.727Z,440.00
2019-05-19T03:48:47.753Z,460.00
2019-05-19T03:49:47.774Z,484.00
2019-05-19T03:50:47.801Z,512.00
2019-05-19T03:51:47.829Z,540.00
2019-05-19T03:52:47.856Z,568.00
2019-05-19T03:53:47.895Z,596.00
2019-05-19T03:54:47.963Z,624.00
2019-05-19T03:55:47.934Z,660.00
2019-05-19T03:56:47.971Z,692.00
2019-05-19T03:57:47.991Z,720.00
2019-05-19T03:58:48.026Z,756.00
2019-05-19T03:59:48.046Z,792.00
2019-05-19T04:00:48.074Z,828.00
2019-05-19T04:01:48.102Z,868.00
2019-05-19T04:02:48.140Z,908.00
2019-05-19T04:03:48.154Z,948.00
2019-05-19T04:04:48.182Z,992.00
2019-05-19T04:05:48.215Z,1028.00
2019-05-19T04:06:48.237Z,1068.00
2019-05-19T04:07:48.266Z,1108.00
2019-05-19T04:08:48.289Z,1136.00
2019-05-19T04:09:48.317Z,1168.00
2019-05-19T04:10:48.342Z,1196.00
2019-05-19T04:11:48.369Z,1224.00
2019-05-19T04:12:48.403Z,1244.00
2019-05-19T04:13:48.425Z,1268.00
2019-05-19T04:14:48.457Z,1284.00
2019-05-19T04:15:48.481Z,1312.00
2019-05-19T04:16:48.521Z,1328.00
2019-05-19T04:17:48.534Z,1352.00
2019-05-19T04:18:48.561Z,1376.00
2019-05-19T04:19:48.585Z,1400.00
2019-05-19T04:20:48.613Z,1428.00
2019-05-19T04:21:49.746Z,1456.00
2019-05-19T04:22:48.669Z,1484.00
2019-05-19T04:23:48.706Z,1516.00
2019-05-19T04:24:48.727Z,1552.00
2019-05-19T04:25:48.756Z,1588.00
2019-05-19T04:26:48.778Z,1628.00
2019-05-19T04:27:48.804Z,1676.00
2019-05-19T04:28:48.833Z,1720.00
2019-05-19T04:29:48.861Z,1768.00
2019-05-19T04:30:48.888Z,1816.00
2019-05-19T04:31:48.918Z,1860.00
2019-05-19T04:32:48.940Z,1908.00
2019-05-19T04:33:48.974Z,1964.00
2019-05-19T04:34:48.997Z,2024.00
2019-05-19T04:35:49.021Z,2088.00
2019-05-19T04:36:49.048Z,2164.00
2019-05-19T04:37:49.086Z,2196.00
2019-05-19T04:38:49.110Z,2228.00
2019-05-19T04:39:49.130Z,2272.00
2019-05-19T04:40:49.159Z,2328.00
2019-05-19T04:41:49.186Z,2376.00
2019-05-19T04:42:49.214Z,2412.00
2019-05-19T04:43:49.239Z,2452.00
2019-05-19T04:44:49.267Z,2496.00
2019-05-19T04:45:49.300Z,2560.00
2019-05-19T04:46:49.325Z,2644.00
2019-05-19T04:47:49.348Z,2736.00
2019-05-19T04:48:49.375Z,2896.00
2019-05-19T04:49:49.412Z,3088.00
2019-05-19T04:50:49.432Z,3108.00
2019-05-19T04:52:06.100Z,3108.00
2019-05-19T04:52:49.483Z,3104.00
2019-05-19T04:53:49.510Z,3164.00
2019-05-19T04:54:49.539Z,3180.00
2019-05-19T04:55:49.563Z,3220.00
2019-05-19T04:56:49.595Z,3296.00
2019-05-19T04:57:49.627Z,3364.00
2019-05-19T04:58:49.647Z,3408.00
2019-05-19T04:59:49.679Z,3460.00
2019-05-19T05:00:49.703Z,3520.00
2019-05-19T05:01:49.729Z,3588.00
2019-05-19T05:02:49.757Z,3672.00
2019-05-19T05:03:49.790Z,3768.00
2019-05-19T05:04:49.809Z,3872.00
2019-05-19T05:05:49.844Z,3972.00
2019-05-19T05:07:57.470Z,4200.00
2019-05-19T05:08:57.499Z,4312.00
2019-05-19T05:09:57.532Z,4448.00
2019-05-19T05:10:57.560Z,4580.00
2019-05-19T05:11:57.584Z,4720.00
2019-05-19T05:12:57.608Z,4800.00
2019-05-19T05:13:57.637Z,4872.00
2019-05-19T05:14:57.665Z,4988.00
2019-05-19T05:15:57.705Z,5120.00
2019-05-19T05:16:57.722Z,5236.00
2019-05-19T05:17:57.746Z,5372.00
2019-05-19T05:18:57.776Z,5576.00
2019-05-19T05:19:57.800Z,5916.00
2019-05-19T05:20:57.829Z,6100.00
2019-05-19T05:21:57.858Z,6296.00
2019-05-19T05:22:57.885Z,6192.00
2019-05-19T05:23:57.917Z,6256.00
2019-05-19T05:24:57.946Z,6320.00
2019-05-19T05:25:57.970Z,6548.00
2019-05-19T05:26:57.994Z,6924.00
2019-05-19T05:27:58.031Z,7564.00
2019-05-19T05:28:58.051Z,7648.00
2019-05-19T05:29:58.079Z,7544.00
2019-05-19T05:30:58.108Z,7232.00
2019-05-19T05:31:58.133Z,6932.00
2019-05-19T05:32:58.161Z,6724.00
2019-05-19T05:33:58.192Z,7120.00
2019-05-19T05:34:58.220Z,7548.00
2019-05-19T05:35:58.258Z,7936.00
2019-05-19T05:36:58.276Z,8696.00
2019-05-19T05:37:58.307Z,8656.00
2019-05-19T05:38:58.330Z,9020.00
2019-05-19T05:39:58.361Z,9300.00
2019-05-19T05:40:58.385Z,9820.00
2019-05-19T05:41:58.416Z,11268.00
2019-05-19T05:42:58.462Z,10568.00
2019-05-19T05:43:58.469Z,9144.00
2019-05-19T05:44:58.507Z,9824.00
2019-05-19T05:45:58.527Z,11944.00
2019-05-19T05:46:58.562Z,14500.00
2019-05-19T05:47:58.590Z,15424.00
2019-05-19T05:48:58.612Z,15584.00
2019-05-19T05:49:58.641Z,14152.00
2019-05-19T05:50:58.671Z,12884.00
2019-05-19T05:51:58.696Z,12420.00
2019-05-19T05:52:58.727Z,11968.00
2019-05-19T05:53:58.756Z,12324.00
2019-05-19T05:54:58.780Z,12136.00
2019-05-19T05:55:58.811Z,13188.00
2019-05-19T05:56:58.839Z,13384.00
2019-05-19T05:57:58.867Z,12192.00
2019-05-19T05:58:58.895Z,11604.00
2019-05-19T05:59:58.925Z,13584.00
2019-05-19T06:00:58.952Z,13004.00
2019-05-19T06:01:58.984Z,13096.00
2019-05-19T06:02:59.017Z,13540.00
2019-05-19T06:03:59.040Z,12932.00
2019-05-19T06:04:59.077Z,13188.00
2019-05-19T06:05:59.096Z,14084.00
2019-05-19T06:06:59.136Z,13108.00
2019-05-19T06:07:59.155Z,12432.00
2019-05-19T06:08:59.183Z,12136.00
2019-05-19T06:09:59.210Z,11744.00
2019-05-19T06:10:59.238Z,12876.00
2019-05-19T06:11:59.267Z,12568.00
2019-05-19T06:12:59.306Z,12568.00
2019-05-19T06:13:59.325Z,12396.00
2019-05-19T06:14:59.361Z,12808.00
2019-05-19T06:15:59.384Z,13868.00
2019-05-19T06:16:59.421Z,14568.00
2019-05-19T06:17:59.442Z,15124.00
2019-05-19T06:18:59.475Z,15664.00
2019-05-19T06:19:59.501Z,15572.00
2019-05-19T06:20:59.532Z,14960.00
2019-05-19T06:21:59.557Z,14120.00
2019-05-19T06:22:59.589Z,14548.00
2019-05-19T06:23:59.618Z,14412.00
2019-05-19T06:24:59.650Z,16448.00
2019-05-19T06:25:59.690Z,17152.00
2019-05-19T06:26:59.706Z,17152.00
2019-05-19T06:27:59.734Z,17440.00
2019-05-19T06:28:59.771Z,19424.00
2019-05-19T06:29:59.798Z,20448.00
2019-05-19T06:30:59.821Z,20672.00
2019-05-19T06:31:59.854Z,21600.00
2019-05-19T06:32:59.884Z,21952.00
2019-05-19T06:33:59.913Z,22624.00
2019-05-19T06:34:59.939Z,23776.00
2019-05-19T06:35:59.970Z,26720.00
2019-05-19T06:36:59.999Z,28800.00
2019-05-19T06:38:00.032Z,27232.00
2019-05-19T06:39:00.221Z,30976.00
2019-05-19T06:40:00.098Z,36672.00
2019-05-19T06:41:00.122Z,36256.00
2019-05-19T06:42:00.180Z,32544.00
2019-05-19T06:43:00.198Z,28480.00
2019-05-19T06:44:03.217Z,23840.00
2019-05-19T06:45:00.242Z,20992.00
2019-05-19T06:46:00.275Z,20928.00
2019-05-19T06:47:00.309Z,19616.00
2019-05-19T06:48:00.338Z,16512.00
2019-05-19T06:49:00.368Z,15788.00
2019-05-19T06:50:00.403Z,14728.00
2019-05-19T06:51:00.435Z,13664.00
2019-05-19T06:52:00.457Z,13012.00
2019-05-19T06:53:13.337Z,13108.00
2019-05-19T06:54:00.520Z,14184.00
2019-05-19T06:55:00.623Z,15616.00
2019-05-19T06:56:00.582Z,18240.00
2019-05-19T06:57:00.613Z,18432.00
2019-05-19T06:58:00.648Z,20864.00
2019-05-19T06:59:00.677Z,30368.00
2019-05-19T07:00:00.708Z,33248.00
2019-05-19T07:01:00.746Z,33216.00
2019-05-19T07:02:00.769Z,35936.00
2019-05-19T07:03:00.800Z,36064.00
2019-05-19T07:04:00.833Z,34944.00
2019-05-19T07:05:00.868Z,32928.00
2019-05-19T07:06:00.898Z,30880.00
2019-05-19T07:07:00.937Z,30304.00
2019-05-19T07:08:00.958Z,25184.00
2019-05-19T07:09:00.989Z,19712.00
2019-05-19T07:10:01.021Z,16960.00
2019-05-19T07:11:01.052Z,15916.00
2019-05-19T07:12:01.089Z,14516.00
2019-05-19T07:13:01.112Z,12348.00
2019-05-19T07:14:03.052Z,12212.00
2019-05-19T07:15:01.187Z,12012.00
2019-05-19T07:16:01.232Z,12248.00
2019-05-19T07:17:01.244Z,12344.00
2019-05-19T07:18:01.279Z,12504.00
2019-05-19T07:19:01.312Z,12956.00
2019-05-19T07:20:01.343Z,14356.00
2019-05-19T07:21:01.367Z,14076.00
2019-05-19T07:22:01.398Z,14244.00
2019-05-19T07:23:01.486Z,14456.00
2019-05-19T07:24:01.461Z,18752.00
2019-05-19T07:25:01.523Z,22368.00
2019-05-19T07:26:01.532Z,16928.00
2019-05-19T07:27:01.552Z,16052.00
2019-05-19T07:28:01.585Z,19232.00
2019-05-19T07:29:01.720Z,20928.00
2019-05-19T07:30:01.648Z,17472.00
2019-05-19T07:31:01.853Z,20352.00
2019-05-19T07:32:01.837Z,18496.00
2019-05-19T07:33:01.744Z,17920.00
2019-05-19T07:34:01.806Z,17984.00
2019-05-19T07:35:01.802Z,20128.00
2019-05-19T07:36:01.834Z,15160.00
2019-05-19T07:37:01.865Z,15556.00
2019-05-19T07:38:01.943Z,16540.00
2019-05-19T07:39:01.923Z,19040.00
2019-05-19T07:40:01.969Z,21696.00
2019-05-19T07:41:01.987Z,25024.00
2019-05-19T07:42:02.025Z,22784.00
2019-05-19T07:43:02.050Z,20896.00
2019-05-19T07:44:02.087Z,17280.00
2019-05-19T07:45:02.109Z,16156.00
2019-05-19T07:46:02.147Z,17472.00
2019-05-19T07:47:02.173Z,16672.00
2019-05-19T07:48:02.206Z,16296.00
2019-05-19T07:49:02.234Z,16268.00
2019-05-19T07:50:02.271Z,14440.00
2019-05-19T07:51:02.406Z,14348.00
2019-05-19T07:52:02.336Z,14180.00
2019-05-19T07:53:02.362Z,14272.00
2019-05-19T07:54:02.392Z,14272.00
2019-05-19T07:55:02.421Z,14584.00
2019-05-19T07:56:02.449Z,14492.00
2019-05-19T07:57:02.484Z,14668.00
2019-05-19T07:58:02.517Z,14736.00
2019-05-19T07:59:02.545Z,14864.00
2019-05-19T08:00:02.808Z,15264.00
2019-05-19T08:01:02.758Z,15772.00
2019-05-19T08:02:02.635Z,16196.00
2019-05-19T08:03:02.697Z,16896.00
2019-05-19T08:04:02.694Z,17632.00
2019-05-19T08:05:02.725Z,19424.00
2019-05-19T08:06:03.141Z,24384.00
2019-05-19T08:07:02.810Z,30784.00
2019-05-19T08:08:02.820Z,33984.00
2019-05-19T08:09:02.845Z,34944.00
2019-05-19T08:10:02.877Z,36992.00
2019-05-19T08:11:02.914Z,37952.00
2019-05-19T08:12:02.940Z,44512.00
2019-05-19T08:13:03.051Z,38400.00
2019-05-19T08:14:03.001Z,42368.00
2019-05-19T08:15:03.032Z,41248.00
2019-05-19T08:16:03.060Z,49088.00
2019-05-19T08:17:03.179Z,59008.00
2019-05-19T08:18:03.147Z,61248.00
2019-05-19T08:19:03.155Z,63168.00
2019-05-19T08:20:03.192Z,61664.00
2019-05-19T08:21:03.220Z,63776.00
2019-05-19T08:22:03.252Z,53344.00
2019-05-19T08:23:59.254Z,49536.00
2019-05-19T08:24:45.868Z,55232.00
2019-05-19T08:25:45.920Z,66688.00
2019-05-19T08:26:45.930Z,71424.00
2019-05-19T08:27:45.967Z,74656.00
2019-05-19T08:28:45.998Z,69504.00
2019-05-19T08:29:46.030Z,48896.00
2019-05-19T08:30:46.123Z,36096.00
2019-05-19T08:31:46.099Z,34080.00
2019-05-19T08:32:46.130Z,27456.00
2019-05-19T08:33:46.173Z,34016.00
2019-05-19T08:34:46.200Z,52480.00
2019-05-19T08:35:46.231Z,62464.00
2019-05-19T08:36:46.267Z,62656.00
2019-05-19T08:37:46.299Z,67008.00
2019-05-19T08:38:46.332Z,64800.00
2019-05-19T08:39:46.368Z,54976.00
2019-05-19T08:40:46.415Z,52896.00
2019-05-19T08:41:46.435Z,57120.00
2019-05-19T08:42:46.466Z,62048.00
2019-05-19T08:43:46.511Z,59904.00
2019-05-19T08:44:46.538Z,65536.00
2019-05-19T08:45:46.577Z,68192.00
2019-05-19T08:46:47.624Z,63456.00
2019-05-19T08:47:46.641Z,63424.00
2019-05-19T08:48:46.674Z,65184.00
2019-05-19T08:49:46.712Z,63360.00
2019-05-19T08:50:46.746Z,56736.00
2019-05-19T08:51:46.787Z,39200.00
2019-05-19T08:52:46.817Z,27840.00
2019-05-19T08:53:46.853Z,28672.00
2019-05-19T08:54:49.510Z,30528.00
2019-05-19T08:55:46.924Z,28224.00
2019-05-19T08:56:46.955Z,28928.00
2019-05-19T08:57:46.994Z,27424.00
2019-05-19T08:58:47.054Z,31328.00
2019-05-19T08:59:47.062Z,27840.00
2019-05-19T09:00:47.103Z,34240.00
2019-05-19T09:01:47.134Z,39584.00
2019-05-19T09:02:47.175Z,39168.00
2019-05-19T09:03:47.204Z,50816.00
2019-05-19T09:04:47.237Z,62144.00
2019-05-19T09:05:48.005Z,63200.00
2019-05-19T09:06:47.319Z,43776.00
2019-05-19T09:07:47.350Z,58048.00
2019-05-19T09:08:47.381Z,72896.00
2019-05-19T09:09:47.474Z,75552.00
2019-05-19T09:10:47.446Z,81696.00
2019-05-19T09:11:47.971Z,79488.00
2019-05-19T09:12:47.516Z,77536.00
2019-05-19T09:13:47.558Z,82176.00
2019-05-19T09:14:47.585Z,81536.00
2019-05-19T09:15:47.623Z,79840.00
2019-05-19T09:16:47.656Z,81056.00
2019-05-19T09:17:47.702Z,79936.00
2019-05-19T09:18:47.735Z,73664.00
2019-05-19T09:19:47.824Z,69056.00
2019-05-19T09:20:47.803Z,59296.00
2019-05-19T09:21:47.839Z,62176.00
2019-05-19T09:22:47.899Z,65984.00
2019-05-19T09:23:47.912Z,66208.00
2019-05-19T09:24:47.945Z,33952.00
2019-05-19T09:25:47.982Z,56480.00
2019-05-19T09:26:48.016Z,63872.00
2019-05-19T09:27:48.056Z,67584.00
2019-05-19T09:29:35.845Z,67200.00
2019-05-19T09:30:35.880Z,78368.00
2019-05-19T09:31:35.920Z,78080.00
2019-05-19T09:32:35.955Z,75136.00
2019-05-19T09:33:39.225Z,76736.00
2019-05-19T09:34:36.027Z,69536.00
2019-05-19T09:35:36.064Z,70848.00
2019-05-19T09:36:38.726Z,64352.00
2019-05-19T09:37:36.143Z,72768.00
2019-05-19T09:38:36.174Z,76128.00
2019-05-19T09:39:36.220Z,78016.00
2019-05-19T09:40:36.255Z,73312.00
2019-05-19T09:42:36.645Z,73568.00
2019-05-19T09:43:36.369Z,51104.00
2019-05-19T09:44:36.401Z,39296.00
2019-05-19T09:45:36.441Z,32640.00
2019-05-19T09:46:36.474Z,36160.00
2019-05-19T09:47:36.565Z,75872.00
2019-05-19T09:48:36.549Z,71392.00
2019-05-19T09:49:36.596Z,75648.00
2019-05-19T09:50:36.677Z,67392.00
2019-05-19T09:51:36.662Z,61632.00
2019-05-19T09:52:36.705Z,50880.00
2019-05-19T09:53:36.738Z,39136.00
2019-05-19T09:54:44.615Z,30912.00
2019-05-19T09:55:36.815Z,31008.00
2019-05-19T09:56:36.854Z,57984.00
2019-05-19T09:57:36.899Z,58944.00
2019-05-19T09:58:36.932Z,68096.00
2019-05-19T09:59:36.966Z,64640.00
2019-05-19T10:00:38.014Z,62880.00
2019-05-19T10:01:37.040Z,59872.00
2019-05-19T10:02:37.076Z,66816.00
2019-05-19T10:03:37.120Z,61536.00
2019-05-19T10:04:37.158Z,45856.00
2019-05-19T10:05:37.211Z,47552.00
2019-05-19T10:06:37.301Z,37760.00
2019-05-19T10:07:37.265Z,39392.00
2019-05-19T10:08:37.314Z,38112.00
2019-05-19T10:09:37.356Z,42464.00
2019-05-19T10:10:37.376Z,31840.00
2019-05-19T10:11:37.416Z,43424.00
2019-05-19T10:12:37.457Z,52544.00
2019-05-19T10:13:37.924Z,57440.00
2019-05-19T10:14:37.529Z,33312.00
2019-05-19T10:15:37.567Z,31264.00
2019-05-19T10:16:37.604Z,22848.00
2019-05-19T10:17:37.641Z,21664.00
2019-05-19T10:18:37.675Z,20160.00
2019-05-19T10:19:37.712Z,20128.00
2019-05-19T10:20:37.748Z,20704.00
2019-05-19T10:21:37.787Z,16812.00
2019-05-19T10:22:37.873Z,16712.00
2019-05-19T10:23:37.874Z,21280.00
2019-05-19T10:24:37.904Z,35936.00
2019-05-19T10:25:37.932Z,48960.00
2019-05-19T10:26:37.967Z,55040.00
2019-05-19T10:27:38.001Z,61120.00
2019-05-19T10:28:38.050Z,67904.00
2019-05-19T10:29:38.087Z,76736.00
2019-05-19T10:30:38.108Z,72416.00
2019-05-19T10:31:38.292Z,68608.00
2019-05-19T10:32:38.187Z,69984.00
2019-05-19T10:33:38.216Z,72672.00
2019-05-19T10:34:38.264Z,71296.00
2019-05-19T10:35:38.287Z,61664.00
2019-05-19T10:36:38.332Z,32384.00
2019-05-19T10:37:38.362Z,22368.00
2019-05-19T10:38:38.406Z,22496.00
2019-05-19T10:39:38.434Z,17344.00
2019-05-19T10:40:38.474Z,17408.00
2019-05-19T10:41:38.511Z,15176.00
2019-05-19T10:42:38.542Z,12332.00
2019-05-19T10:43:38.575Z,11944.00
2019-05-19T10:44:38.615Z,11852.00
2019-05-19T10:45:38.652Z,11916.00
2019-05-19T10:46:38.687Z,12196.00
2019-05-19T10:47:38.720Z,12832.00
2019-05-19T10:48:38.756Z,14252.00
2019-05-19T10:49:38.792Z,16948.00
2019-05-19T10:50:38.832Z,23328.00
2019-05-19T10:51:38.862Z,32704.00
2019-05-19T10:52:38.897Z,46752.00
2019-05-19T10:53:38.931Z,55040.00
2019-05-19T10:54:38.965Z,63840.00
2019-05-19T10:55:39.003Z,62368.00
2019-05-19T10:56:39.034Z,62112.00
2019-05-19T10:57:39.068Z,68224.00
2019-05-19T10:58:39.101Z,73152.00
2019-05-19T10:59:39.139Z,65920.00
2019-05-19T11:00:39.173Z,59488.00
2019-05-19T11:01:39.210Z,55264.00
2019-05-19T11:02:39.249Z,60448.00
2019-05-19T11:03:39.282Z,69312.00
2019-05-19T11:04:39.315Z,72160.00
2019-05-19T11:05:39.352Z,71488.00
2019-05-19T11:06:39.385Z,67904.00
2019-05-19T11:07:39.431Z,61856.00
2019-05-19T11:08:39.467Z,56096.00
2019-05-19T11:09:39.497Z,55136.00
2019-05-19T11:10:39.531Z,54784.00
2019-05-19T11:11:39.575Z,53856.00
2019-05-19T11:12:39.612Z,45472.00
2019-05-19T11:13:39.671Z,19872.00
2019-05-19T11:14:39.687Z,19904.00
2019-05-19T11:15:39.724Z,20352.00
2019-05-19T11:16:39.758Z,20672.00
2019-05-19T11:17:39.788Z,20640.00
2019-05-19T11:18:39.825Z,20864.00
2019-05-19T11:19:39.863Z,45856.00
2019-05-19T11:20:39.904Z,19776.00
2019-05-19T11:21:39.938Z,22752.00
2019-05-19T11:22:39.981Z,20736.00
2019-05-19T11:23:40.044Z,19200.00
2019-05-19T11:24:40.048Z,19136.00
2019-05-19T11:25:51.055Z,19104.00
2019-05-19T11:26:40.120Z,20032.00
2019-05-19T11:27:40.156Z,23296.00
2019-05-19T11:28:40.193Z,19136.00
2019-05-19T11:29:40.238Z,15796.00
2019-05-19T11:30:40.271Z,15592.00
2019-05-19T11:31:40.299Z,16336.00
2019-05-19T11:32:40.338Z,17696.00
2019-05-19T11:33:40.375Z,18528.00
2019-05-19T11:34:40.405Z,17568.00
2019-05-19T11:35:40.441Z,16540.00
2019-05-19T11:36:40.477Z,16424.00
2019-05-19T11:37:40.518Z,15292.00
2019-05-19T11:38:40.550Z,14916.00
2019-05-19T11:39:40.594Z,14348.00
2019-05-19T11:40:40.626Z,13776.00
2019-05-19T11:41:40.667Z,13560.00
2019-05-19T11:42:40.690Z,13732.00
2019-05-19T11:43:40.725Z,14100.00
2019-05-19T11:44:40.767Z,14836.00
2019-05-19T11:45:40.795Z,16116.00
2019-05-19T11:46:40.827Z,17268.00
2019-05-19T11:47:40.870Z,20128.00
2019-05-19T11:48:40.901Z,17840.00
2019-05-19T11:49:40.935Z,19200.00
2019-05-19T11:50:42.152Z,21216.00
2019-05-19T11:51:41.002Z,22048.00
2019-05-19T11:52:41.037Z,21952.00
2019-05-19T11:53:41.073Z,21728.00
2019-05-19T11:54:41.109Z,21536.00
2019-05-19T11:55:41.141Z,20320.00
2019-05-19T11:56:41.174Z,16940.00
2019-05-19T11:57:41.210Z,16496.00
2019-05-19T11:58:41.242Z,15248.00
2019-05-19T11:59:41.278Z,15304.00
2019-05-19T12:00:41.314Z,13968.00
2019-05-19T12:01:41.348Z,14244.00
2019-05-19T12:02:41.381Z,14548.00
2019-05-19T12:03:41.418Z,14900.00
2019-05-19T12:04:41.453Z,14872.00
2019-05-19T12:05:41.491Z,14524.00
2019-05-19T12:06:41.517Z,14404.00
2019-05-19T12:07:41.562Z,14280.00
2019-05-19T12:08:41.590Z,14100.00
2019-05-19T12:09:41.624Z,13864.00
2019-05-19T12:10:41.657Z,13396.00
2019-05-19T12:11:41.698Z,12968.00
2019-05-19T12:12:41.735Z,12952.00
2019-05-19T12:13:41.769Z,13424.00
2019-05-19T12:14:41.795Z,13288.00
2019-05-19T12:15:41.830Z,14464.00
2019-05-19T12:16:42.063Z,21856.00
2019-05-19T12:17:41.895Z,13384.00
2019-05-19T12:18:41.928Z,13276.00